sensor_id;sensor_type;location;lat;lon;timestamp;pressure;altitude;pressure_sealevel;temperature;humidity
47240;BME280;32978;53.586;10.052;2023-04-10T00:00:56;102477.88;;;5.62;100.00
47240;BME280;32978;53.586;10.052;2023-04-10T00:05:54;102479.16;;;5.72;100.00
47240;BME280;32978;53.586;10.052;2023-04-10T00:10:51;102465.13;;;5.63;100.00
47240;BME280;32978;53.586;10.052;2023-04-10T00:15:49;102453.59;;;5.56;100.00
47240;BME280;32978;53.586;10.052;2023-04-10T00:20:46;102446.06;;;5.58;100.00
47240;BME280;32978;53.586;10.052;2023-04-10T00:25:42;102436.41;;;5.50;100.00
47240;BME280;32978;53.586;10.052;2023-04-10T00:30:38;102433.84;;;5.43;100.00
47240;BME280;32978;53.586;10.052;2023-04-10T00:35:35;102432.19;;;5.42;100.00
47240;BME280;32978;53.586;10.052;2023-04-10T00:40:32;102433.56;;;5.45;100.00
47240;BME280;32978;53.586;10.052;2023-04-10T00:45:28;102433.97;;;5.37;100.00
47240;BME280;32978;53.586;10.052;2023-04-10T00:50:25;102435.59;;;5.38;100.00
47240;BME280;32978;53.586;10.052;2023-04-10T00:55:22;102430.00;;;5.27;100.00
47240;BME280;32978;53.586;10.052;2023-04-10T01:00:19;102424.06;;;5.31;100.00
47240;BME280;32978;53.586;10.052;2023-04-10T01:10:32;102428.81;;;5.23;100.00
47240;BME280;32978;53.586;10.052;2023-04-10T01:15:40;102421.25;;;5.25;100.00
47240;BME280;32978;53.586;10.052;2023-04-10T01:20:38;102425.50;;;5.21;100.00
47240;BME280;32978;53.586;10.052;2023-04-10T01:25:43;102415.47;;;5.22;100.00
47240;BME280;32978;53.586;10.052;2023-04-10T01:30:42;102423.88;;;5.20;100.00
47240;BME280;32978;53.586;10.052;2023-04-10T01:35:42;102418.47;;;5.20;100.00
47240;BME280;32978;53.586;10.052;2023-04-10T01:40:40;102416.34;;;5.22;100.00
47240;BME280;32978;53.586;10.052;2023-04-10T01:45:38;102407.47;;;5.27;100.00
47240;BME280;32978;53.586;10.052;2023-04-10T01:50:37;102406.34;;;5.40;100.00
47240;BME280;32978;53.586;10.052;2023-04-10T01:55:35;102398.13;;;5.35;100.00
47240;BME280;32978;53.586;10.052;2023-04-10T02:00:39;102394.34;;;5.36;100.00
47240;BME280;32978;53.586;10.052;2023-04-10T02:10:51;102380.19;;;5.34;100.00
47240;BME280;32978;53.586;10.052;2023-04-10T02:15:50;102374.63;;;5.40;100.00
47240;BME280;32978;53.586;10.052;2023-04-10T02:20:47;102369.81;;;5.31;100.00
47240;BME280;32978;53.586;10.052;2023-04-10T02:25:44;102367.88;;;5.43;100.00
47240;BME280;32978;53.586;10.052;2023-04-10T02:30:40;102364.25;;;5.37;100.00
47240;BME280;32978;53.586;10.052;2023-04-10T02:35:37;102371.00;;;5.35;100.00
47240;BME280;32978;53.586;10.052;2023-04-10T02:40:34;102365.72;;;5.28;100.00
47240;BME280;32978;53.586;10.052;2023-04-10T02:45:30;102361.94;;;5.29;100.00
47240;BME280;32978;53.586;10.052;2023-04-10T02:50:28;102358.78;;;5.20;100.00
47240;BME280;32978;53.586;10.052;2023-04-10T02:55:27;102351.38;;;5.16;100.00
47240;BME280;32978;53.586;10.052;2023-04-10T03:00:23;102350.56;;;5.15;100.00
47240;BME280;32978;53.586;10.052;2023-04-10T03:05:19;102335.97;;;5.04;100.00
47240;BME280;32978;53.586;10.052;2023-04-10T03:10:16;102334.66;;;5.07;100.00
47240;BME280;32978;53.586;10.052;2023-04-10T03:15:12;102325.38;;;5.03;100.00
47240;BME280;32978;53.586;10.052;2023-04-10T03:20:09;102315.34;;;5.03;100.00
47240;BME280;32978;53.586;10.052;2023-04-10T03:25:06;102319.13;;;5.02;100.00
47240;BME280;32978;53.586;10.052;2023-04-10T03:30:03;102310.63;;;5.11;100.00
47240;BME280;32978;53.586;10.052;2023-04-10T03:35:00;102308.63;;;5.06;100.00
47240;BME280;32978;53.586;10.052;2023-04-10T03:39:56;102299.91;;;5.04;100.00
47240;BME280;32978;53.586;10.052;2023-04-10T03:44:53;102298.34;;;5.08;100.00
47240;BME280;32978;53.586;10.052;2023-04-10T03:49:49;102297.22;;;5.04;100.00
47240;BME280;32978;53.586;10.052;2023-04-10T03:54:46;102304.34;;;5.10;100.00
47240;BME280;32978;53.586;10.052;2023-04-10T03:59:42;102283.78;;;4.97;100.00
47240;BME280;32978;53.586;10.052;2023-04-10T04:04:39;102284.31;;;5.11;100.00
47240;BME280;32978;53.586;10.052;2023-04-10T04:09:36;102278.09;;;5.11;100.00
47240;BME280;32978;53.586;10.052;2023-04-10T04:14:33;102289.25;;;5.14;100.00
47240;BME280;32978;53.586;10.052;2023-04-10T04:19:29;102293.38;;;5.17;100.00
47240;BME280;32978;53.586;10.052;2023-04-10T04:24:26;102293.03;;;5.13;100.00
47240;BME280;32978;53.586;10.052;2023-04-10T04:29:22;102288.00;;;5.05;100.00
47240;BME280;32978;53.586;10.052;2023-04-10T04:34:19;102284.03;;;4.96;100.00
47240;BME280;32978;53.586;10.052;2023-04-10T04:39:15;102285.69;;;4.97;100.00
47240;BME280;32978;53.586;10.052;2023-04-10T04:44:11;102289.34;;;4.91;100.00
47240;BME280;32978;53.586;10.052;2023-04-10T04:49:08;102287.31;;;4.98;100.00
47240;BME280;32978;53.586;10.052;2023-04-10T04:54:04;102286.94;;;5.06;100.00
47240;BME280;32978;53.586;10.052;2023-04-10T04:59:01;102288.09;;;5.10;100.00
47240;BME280;32978;53.586;10.052;2023-04-10T05:03:57;102289.75;;;5.11;100.00
47240;BME280;32978;53.586;10.052;2023-04-10T05:08:54;102285.09;;;5.23;100.00
47240;BME280;32978;53.586;10.052;2023-04-10T05:13:51;102289.78;;;5.28;100.00
47240;BME280;32978;53.586;10.052;2023-04-10T05:18:48;102286.34;;;5.33;100.00
47240;BME280;32978;53.586;10.052;2023-04-10T05:23:44;102292.78;;;5.43;100.00
47240;BME280;32978;53.586;10.052;2023-04-10T05:28:40;102276.34;;;5.50;100.00
47240;BME280;32978;53.586;10.052;2023-04-10T05:33:37;102274.94;;;5.64;100.00
47240;BME280;32978;53.586;10.052;2023-04-10T05:38:33;102275.91;;;5.75;100.00
47240;BME280;32978;53.586;10.052;2023-04-10T05:43:30;102271.47;;;5.86;100.00
47240;BME280;32978;53.586;10.052;2023-04-10T05:48:26;102272.22;;;5.98;100.00
47240;BME280;32978;53.586;10.052;2023-04-10T05:53:28;102268.03;;;6.07;100.00
47240;BME280;32978;53.586;10.052;2023-04-10T05:58:28;102262.41;;;6.14;100.00
47240;BME280;32978;53.586;10.052;2023-04-10T06:03:24;102264.97;;;6.21;100.00
47240;BME280;32978;53.586;10.052;2023-04-10T06:08:23;102257.91;;;6.20;100.00
47240;BME280;32978;53.586;10.052;2023-04-10T06:13:19;102248.72;;;6.26;100.00
47240;BME280;32978;53.586;10.052;2023-04-10T06:18:16;102238.44;;;6.28;100.00
47240;BME280;32978;53.586;10.052;2023-04-10T06:23:12;102233.63;;;6.35;100.00
47240;BME280;32978;53.586;10.052;2023-04-10T06:28:09;102223.91;;;6.39;100.00
47240;BME280;32978;53.586;10.052;2023-04-10T06:33:06;102222.91;;;6.45;100.00
47240;BME280;32978;53.586;10.052;2023-04-10T06:38:02;102220.31;;;6.56;100.00
47240;BME280;32978;53.586;10.052;2023-04-10T06:42:59;102206.81;;;6.66;100.00
47240;BME280;32978;53.586;10.052;2023-04-10T06:47:56;102217.25;;;6.74;100.00
47240;BME280;32978;53.586;10.052;2023-04-10T06:52:52;102206.94;;;6.76;100.00
47240;BME280;32978;53.586;10.052;2023-04-10T06:57:51;102217.44;;;6.89;100.00
47240;BME280;32978;53.586;10.052;2023-04-10T07:02:48;102206.03;;;6.92;100.00
47240;BME280;32978;53.586;10.052;2023-04-10T07:07:44;102207.16;;;6.97;100.00
47240;BME280;32978;53.586;10.052;2023-04-10T07:12:42;102208.59;;;7.04;100.00
47240;BME280;32978;53.586;10.052;2023-04-10T07:17:39;102208.38;;;7.11;100.00
47240;BME280;32978;53.586;10.052;2023-04-10T07:22:35;102202.44;;;7.19;100.00
47240;BME280;32978;53.586;10.052;2023-04-10T07:27:32;102203.13;;;7.31;100.00
47240;BME280;32978;53.586;10.052;2023-04-10T07:32:28;102193.44;;;7.46;100.00
47240;BME280;32978;53.586;10.052;2023-04-10T07:37:25;102193.47;;;7.51;100.00
47240;BME280;32978;53.586;10.052;2023-04-10T07:42:21;102181.03;;;7.65;100.00
47240;BME280;32978;53.586;10.052;2023-04-10T07:47:18;102180.06;;;7.82;100.00
47240;BME280;32978;53.586;10.052;2023-04-10T07:52:14;102168.16;;;7.98;100.00
47240;BME280;32978;53.586;10.052;2023-04-10T07:57:11;102166.31;;;8.14;100.00
47240;BME280;32978;53.586;10.052;2023-04-10T08:02:08;102167.53;;;8.38;100.00
47240;BME280;32978;53.586;10.052;2023-04-10T08:07:04;102168.94;;;8.51;100.00
47240;BME280;32978;53.586;10.052;2023-04-10T08:12:01;102164.09;;;8.74;100.00
47240;BME280;32978;53.586;10.052;2023-04-10T08:16:58;102149.38;;;8.95;100.00
47240;BME280;32978;53.586;10.052;2023-04-10T08:21:54;102155.41;;;9.23;100.00
47240;BME280;32978;53.586;10.052;2023-04-10T08:26:51;102144.72;;;9.52;100.00
47240;BME280;32978;53.586;10.052;2023-04-10T08:31:47;102137.84;;;9.80;100.00
47240;BME280;32978;53.586;10.052;2023-04-10T08:36:44;102128.44;;;10.12;100.00
47240;BME280;32978;53.586;10.052;2023-04-10T08:41:40;102131.63;;;10.35;100.00
47240;BME280;32978;53.586;10.052;2023-04-10T08:46:41;102122.84;;;10.43;100.00
47240;BME280;32978;53.586;10.052;2023-04-10T08:51:44;102110.16;;;10.57;100.00
47240;BME280;32978;53.586;10.052;2023-04-10T08:56:49;102100.91;;;10.87;100.00
47240;BME280;32978;53.586;10.052;2023-04-10T09:01:47;102105.38;;;11.12;100.00
47240;BME280;32978;53.586;10.052;2023-04-10T09:06:44;102095.78;;;11.39;100.00
47240;BME280;32978;53.586;10.052;2023-04-10T09:16:53;102077.50;;;11.83;100.00
47240;BME280;32978;53.586;10.052;2023-04-10T09:21:50;102068.88;;;11.94;100.00
47240;BME280;32978;53.586;10.052;2023-04-10T09:26:46;102061.28;;;12.10;100.00
47240;BME280;32978;53.586;10.052;2023-04-10T09:31:43;102046.00;;;12.42;100.00
47240;BME280;32978;53.586;10.052;2023-04-10T09:37:02;102046.00;;;12.42;100.00
47240;BME280;32978;53.586;10.052;2023-04-10T09:41:57;102018.34;;;13.04;100.00
47240;BME280;32978;53.586;10.052;2023-04-10T09:46:53;67994.34;;;-146.18;100.00
47240;BME280;32978;53.586;10.052;2023-04-10T09:51:51;101988.94;;;13.74;100.00
47240;BME280;32978;53.586;10.052;2023-04-10T09:56:47;101974.34;;;14.23;100.00
47240;BME280;32978;53.586;10.052;2023-04-10T10:01:44;101961.41;;;14.69;100.00
47240;BME280;32978;53.586;10.052;2023-04-10T10:06:41;101948.75;;;14.99;100.00
47240;BME280;32978;53.586;10.052;2023-04-10T10:11:38;101943.59;;;15.55;100.00
47240;BME280;32978;53.586;10.052;2023-04-10T10:16:49;101940.03;;;16.33;100.00
47240;BME280;32978;53.586;10.052;2023-04-10T10:21:47;101940.63;;;16.65;100.00
47240;BME280;32978;53.586;10.052;2023-04-10T10:26:46;101917.44;;;16.95;100.00
47240;BME280;32978;53.586;10.052;2023-04-10T10:31:43;101915.63;;;18.80;97.48
47240;BME280;32978;53.586;10.052;2023-04-10T10:36:40;101890.13;;;19.76;88.31
47240;BME280;32978;53.586;10.052;2023-04-10T10:41:41;67994.34;;;-146.18;100.00
47240;BME280;32978;53.586;10.052;2023-04-10T10:46:50;67994.34;;;-146.18;100.00
47240;BME280;32978;53.586;10.052;2023-04-10T10:51:49;67994.34;;;-146.18;100.00
47240;BME280;32978;53.586;10.052;2023-04-10T10:56:46;67994.34;;;-146.18;100.00
47240;BME280;32978;53.586;10.052;2023-04-10T11:07:07;101837.81;;;20.06;62.03
47240;BME280;32978;53.586;10.052;2023-04-10T11:12:04;101817.44;;;19.86;58.87
47240;BME280;32978;53.586;10.052;2023-04-10T11:17:03;101818.94;;;20.44;63.22
47240;BME280;32978;53.586;10.052;2023-04-10T11:22:03;101796.19;;;20.70;61.22
47240;BME280;32978;53.586;10.052;2023-04-10T11:27:00;101783.91;;;20.87;56.72
47240;BME280;32978;53.586;10.052;2023-04-10T11:31:59;101771.84;;;21.99;52.62
47240;BME280;32978;53.586;10.052;2023-04-10T11:36:55;101753.31;;;21.84;46.50
47240;BME280;32978;53.586;10.052;2023-04-10T11:41:53;101748.09;;;22.05;48.07
47240;BME280;32978;53.586;10.052;2023-04-10T11:46:50;101728.47;;;22.44;44.25
47240;BME280;32978;53.586;10.052;2023-04-10T11:51:48;101737.44;;;21.65;40.71
47240;BME280;32978;53.586;10.052;2023-04-10T11:56:57;101729.66;;;21.74;45.24
47240;BME280;32978;53.586;10.052;2023-04-10T12:02:07;101723.59;;;21.92;39.67
47240;BME280;32978;53.586;10.052;2023-04-10T12:07:04;101707.66;;;21.66;39.07
47240;BME280;32978;53.586;10.052;2023-04-10T12:12:03;101704.16;;;22.72;38.84
47240;BME280;32978;53.586;10.052;2023-04-10T12:17:01;101681.00;;;22.98;38.95
47240;BME280;32978;53.586;10.052;2023-04-10T12:21:58;101683.63;;;23.51;37.93
47240;BME280;32978;53.586;10.052;2023-04-10T12:26:57;101668.41;;;22.77;39.91
47240;BME280;32978;53.586;10.052;2023-04-10T12:31:55;101676.38;;;22.22;40.01
47240;BME280;32978;53.586;10.052;2023-04-10T12:36:52;101674.19;;;21.85;42.87
47240;BME280;32978;53.586;10.052;2023-04-10T12:41:49;101660.84;;;21.09;44.24
47240;BME280;32978;53.586;10.052;2023-04-10T12:46:45;101646.50;;;21.07;42.73
47240;BME280;32978;53.586;10.052;2023-04-10T12:51:44;101643.06;;;20.94;43.08
47240;BME280;32978;53.586;10.052;2023-04-10T12:56:42;101643.56;;;21.19;42.74
47240;BME280;32978;53.586;10.052;2023-04-10T13:01:39;101627.41;;;21.48;41.57
47240;BME280;32978;53.586;10.052;2023-04-10T13:06:43;101612.34;;;21.49;41.16
47240;BME280;32978;53.586;10.052;2023-04-10T13:11:39;101613.38;;;21.41;45.55
47240;BME280;32978;53.586;10.052;2023-04-10T13:16:36;101598.25;;;20.76;42.53
47240;BME280;32978;53.586;10.052;2023-04-10T13:21:33;101585.72;;;20.12;45.50
47240;BME280;32978;53.586;10.052;2023-04-10T13:26:30;101567.00;;;19.89;44.87
47240;BME280;32978;53.586;10.052;2023-04-10T13:31:26;101561.25;;;19.50;46.41
47240;BME280;32978;53.586;10.052;2023-04-10T13:36:22;101549.78;;;19.04;45.26
47240;BME280;32978;53.586;10.052;2023-04-10T13:41:19;101539.59;;;19.08;48.17
47240;BME280;32978;53.586;10.052;2023-04-10T13:46:16;101526.28;;;18.42;47.13
47240;BME280;32978;53.586;10.052;2023-04-10T13:51:12;101518.75;;;18.14;49.59
47240;BME280;32978;53.586;10.052;2023-04-10T13:56:09;101511.22;;;18.27;55.23
47240;BME280;32978;53.586;10.052;2023-04-10T14:01:05;101500.34;;;18.06;54.43
47240;BME280;32978;53.586;10.052;2023-04-10T14:06:02;101488.13;;;17.95;57.83
47240;BME280;32978;53.586;10.052;2023-04-10T14:10:58;101470.75;;;17.94;61.36
47240;BME280;32978;53.586;10.052;2023-04-10T14:15:55;101461.81;;;18.13;62.15
47240;BME280;32978;53.586;10.052;2023-04-10T14:20:51;101444.53;;;18.04;63.82
47240;BME280;32978;53.586;10.052;2023-04-10T14:25:49;101438.22;;;18.19;60.84
47240;BME280;32978;53.586;10.052;2023-04-10T14:30:46;101427.38;;;18.26;64.43
47240;BME280;32978;53.586;10.052;2023-04-10T14:35:46;101418.03;;;18.31;64.42
47240;BME280;32978;53.586;10.052;2023-04-10T14:40:43;101405.44;;;18.34;65.07
47240;BME280;32978;53.586;10.052;2023-04-10T14:45:43;101390.69;;;18.29;66.50
47240;BME280;32978;53.586;10.052;2023-04-10T14:50:40;101379.44;;;18.54;67.47
47240;BME280;32978;53.586;10.052;2023-04-10T14:55:36;101353.31;;;18.99;64.76
47240;BME280;32978;53.586;10.052;2023-04-10T15:00:33;101349.38;;;18.68;61.20
47240;BME280;32978;53.586;10.052;2023-04-10T15:05:30;101331.94;;;18.36;62.76
47240;BME280;32978;53.586;10.052;2023-04-10T15:10:29;101318.63;;;18.74;62.60
47240;BME280;32978;53.586;10.052;2023-04-10T15:15:26;101309.59;;;18.61;62.55
47240;BME280;32978;53.586;10.052;2023-04-10T15:20:22;101315.50;;;18.27;61.42
47240;BME280;32978;53.586;10.052;2023-04-10T15:25:18;101288.22;;;17.98;63.23
47240;BME280;32978;53.586;10.052;2023-04-10T15:30:15;101286.44;;;17.90;68.17
47240;BME280;32978;53.586;10.052;2023-04-10T15:35:12;101283.50;;;17.70;67.08
47240;BME280;32978;53.586;10.052;2023-04-10T15:40:09;101254.66;;;17.83;67.14
47240;BME280;32978;53.586;10.052;2023-04-10T15:45:05;101247.91;;;18.28;67.56
47240;BME280;32978;53.586;10.052;2023-04-10T15:50:02;101226.66;;;18.33;66.79
47240;BME280;32978;53.586;10.052;2023-04-10T15:55:00;101215.91;;;18.47;66.53
47240;BME280;32978;53.586;10.052;2023-04-10T15:59:56;101209.81;;;18.73;63.96
47240;BME280;32978;53.586;10.052;2023-04-10T16:04:55;101207.03;;;18.06;66.35
47240;BME280;32978;53.586;10.052;2023-04-10T16:09:52;101191.78;;;17.24;70.04
47240;BME280;32978;53.586;10.052;2023-04-10T16:14:50;101182.66;;;16.95;73.71
47240;BME280;32978;53.586;10.052;2023-04-10T16:19:46;101168.44;;;16.81;74.94
47240;BME280;32978;53.586;10.052;2023-04-10T16:24:43;101160.38;;;16.63;76.91
47240;BME280;32978;53.586;10.052;2023-04-10T16:29:39;101161.91;;;16.49;78.82
47240;BME280;32978;53.586;10.052;2023-04-10T16:34:36;101159.28;;;16.28;80.74
47240;BME280;32978;53.586;10.052;2023-04-10T16:39:32;101144.13;;;16.09;85.25
47240;BME280;32978;53.586;10.052;2023-04-10T16:44:30;101137.69;;;15.93;88.31
47240;BME280;32978;53.586;10.052;2023-04-10T16:49:26;101125.25;;;15.87;90.86
47240;BME280;32978;53.586;10.052;2023-04-10T16:54:23;101126.59;;;15.68;91.76
47240;BME280;32978;53.586;10.052;2023-04-10T16:59:19;101099.50;;;15.58;92.18
47240;BME280;32978;53.586;10.052;2023-04-10T17:04:16;101094.41;;;15.48;93.07
47240;BME280;32978;53.586;10.052;2023-04-10T17:09:14;101086.25;;;15.39;94.05
47240;BME280;32978;53.586;10.052;2023-04-10T17:14:10;101074.16;;;15.31;94.03
47240;BME280;32978;53.586;10.052;2023-04-10T17:19:08;101066.13;;;15.26;94.67
47240;BME280;32978;53.586;10.052;2023-04-10T17:24:04;101069.81;;;15.18;96.18
47240;BME280;32978;53.586;10.052;2023-04-10T17:29:01;101070.69;;;15.10;97.76
47240;BME280;32978;53.586;10.052;2023-04-10T17:33:57;101061.47;;;15.06;98.22
47240;BME280;32978;53.586;10.052;2023-04-10T17:38:54;101067.91;;;14.98;100.00
47240;BME280;32978;53.586;10.052;2023-04-10T17:43:51;101060.03;;;14.87;100.00
47240;BME280;32978;53.586;10.052;2023-04-10T17:48:47;101055.91;;;14.81;100.00
47240;BME280;32978;53.586;10.052;2023-04-10T17:53:44;101047.59;;;14.69;100.00
47240;BME280;32978;53.586;10.052;2023-04-10T17:58:41;101032.19;;;14.56;100.00
47240;BME280;32978;53.586;10.052;2023-04-10T18:03:38;101034.81;;;14.43;100.00
47240;BME280;32978;53.586;10.052;2023-04-10T18:08:34;101026.78;;;14.38;100.00
47240;BME280;32978;53.586;10.052;2023-04-10T18:13:34;101015.50;;;14.31;100.00
47240;BME280;32978;53.586;10.052;2023-04-10T18:18:32;101020.06;;;14.27;100.00
47240;BME280;32978;53.586;10.052;2023-04-10T18:23:29;101020.47;;;14.17;100.00
47240;BME280;32978;53.586;10.052;2023-04-10T18:28:26;101012.56;;;14.15;100.00
47240;BME280;32978;53.586;10.052;2023-04-10T18:33:23;101013.38;;;14.16;100.00
47240;BME280;32978;53.586;10.052;2023-04-10T18:38:20;101002.09;;;14.08;100.00
47240;BME280;32978;53.586;10.052;2023-04-10T18:43:16;101005.19;;;14.07;100.00
47240;BME280;32978;53.586;10.052;2023-04-10T18:48:13;101000.22;;;14.00;100.00
47240;BME280;32978;53.586;10.052;2023-04-10T18:53:09;100990.22;;;13.96;100.00
47240;BME280;32978;53.586;10.052;2023-04-10T18:58:06;100988.00;;;13.89;100.00
47240;BME280;32978;53.586;10.052;2023-04-10T19:03:02;100980.75;;;13.84;100.00
47240;BME280;32978;53.586;10.052;2023-04-10T19:07:59;100969.28;;;13.82;100.00
47240;BME280;32978;53.586;10.052;2023-04-10T19:13:00;100964.94;;;13.81;100.00
47240;BME280;32978;53.586;10.052;2023-04-10T19:17:57;100963.19;;;13.77;100.00
47240;BME280;32978;53.586;10.052;2023-04-10T19:22:53;100958.50;;;13.77;100.00
47240;BME280;32978;53.586;10.052;2023-04-10T19:27:50;100945.91;;;13.76;100.00
47240;BME280;32978;53.586;10.052;2023-04-10T19:32:46;100945.09;;;13.76;100.00
47240;BME280;32978;53.586;10.052;2023-04-10T19:37:43;100921.69;;;13.70;100.00
47240;BME280;32978;53.586;10.052;2023-04-10T19:42:39;100921.88;;;13.64;100.00
47240;BME280;32978;53.586;10.052;2023-04-10T19:47:36;100910.09;;;13.64;100.00
47240;BME280;32978;53.586;10.052;2023-04-10T19:52:32;100899.63;;;13.57;100.00
47240;BME280;32978;53.586;10.052;2023-04-10T19:57:29;100889.47;;;13.58;100.00
47240;BME280;32978;53.586;10.052;2023-04-10T20:02:25;100880.59;;;13.52;100.00
47240;BME280;32978;53.586;10.052;2023-04-10T20:07:23;100868.81;;;13.52;100.00
47240;BME280;32978;53.586;10.052;2023-04-10T20:12:21;100870.28;;;13.49;100.00
47240;BME280;32978;53.586;10.052;2023-04-10T20:17:18;100866.13;;;13.43;100.00
47240;BME280;32978;53.586;10.052;2023-04-10T20:22:14;100842.56;;;13.42;100.00
47240;BME280;32978;53.586;10.052;2023-04-10T20:27:13;100818.03;;;13.37;100.00
47240;BME280;32978;53.586;10.052;2023-04-10T20:32:09;100808.50;;;13.34;100.00
47240;BME280;32978;53.586;10.052;2023-04-10T20:37:06;100789.16;;;13.31;100.00
47240;BME280;32978;53.586;10.052;2023-04-10T20:42:03;100774.63;;;13.30;100.00
47240;BME280;32978;53.586;10.052;2023-04-10T20:46:59;100764.75;;;13.29;100.00
47240;BME280;32978;53.586;10.052;2023-04-10T20:52:00;100756.38;;;13.25;100.00
47240;BME280;32978;53.586;10.052;2023-04-10T20:56:59;100746.03;;;13.22;100.00
47240;BME280;32978;53.586;10.052;2023-04-10T21:01:57;100738.69;;;13.14;100.00
47240;BME280;32978;53.586;10.052;2023-04-10T21:06:54;100728.84;;;13.13;100.00
47240;BME280;32978;53.586;10.052;2023-04-10T21:11:50;100716.94;;;13.09;100.00
47240;BME280;32978;53.586;10.052;2023-04-10T21:16:56;100707.09;;;13.08;100.00
47240;BME280;32978;53.586;10.052;2023-04-10T21:22:11;100703.41;;;13.04;100.00
47240;BME280;32978;53.586;10.052;2023-04-10T21:27:32;100705.56;;;12.98;100.00
47240;BME280;32978;53.586;10.052;2023-04-10T21:32:38;100714.72;;;13.02;100.00
47240;BME280;32978;53.586;10.052;2023-04-10T21:37:34;100719.53;;;13.05;100.00
47240;BME280;32978;53.586;10.052;2023-04-10T21:42:31;100720.47;;;12.89;100.00
47240;BME280;32978;53.586;10.052;2023-04-10T21:47:28;100728.22;;;12.27;100.00
47240;BME280;32978;53.586;10.052;2023-04-10T21:52:25;100740.78;;;11.72;100.00
47240;BME280;32978;53.586;10.052;2023-04-10T21:57:24;100729.34;;;11.62;100.00
47240;BME280;32978;53.586;10.052;2023-04-10T22:02:24;100725.31;;;11.42;100.00
47240;BME280;32978;53.586;10.052;2023-04-10T22:13:47;100730.16;;;10.84;100.00
47240;BME280;32978;53.586;10.052;2023-04-10T22:18:44;100738.94;;;10.63;100.00
47240;BME280;32978;53.586;10.052;2023-04-10T22:23:41;100725.19;;;10.46;100.00
47240;BME280;32978;53.586;10.052;2023-04-10T22:28:37;100744.47;;;10.41;100.00
47240;BME280;32978;53.586;10.052;2023-04-10T22:33:35;100750.31;;;10.25;100.00
47240;BME280;32978;53.586;10.052;2023-04-10T22:38:34;100742.06;;;10.08;100.00
47240;BME280;32978;53.586;10.052;2023-04-10T22:43:32;100737.97;;;9.97;100.00
47240;BME280;32978;53.586;10.052;2023-04-10T22:48:29;100742.72;;;9.82;100.00
47240;BME280;32978;53.586;10.052;2023-04-10T22:53:25;100744.81;;;9.63;100.00
47240;BME280;32978;53.586;10.052;2023-04-10T22:58:23;100728.06;;;9.56;100.00
47240;BME280;32978;53.586;10.052;2023-04-10T23:03:20;100698.06;;;9.56;100.00
47240;BME280;32978;53.586;10.052;2023-04-10T23:08:17;100690.50;;;9.53;100.00
47240;BME280;32978;53.586;10.052;2023-04-10T23:13:13;100681.19;;;9.54;100.00
47240;BME280;32978;53.586;10.052;2023-04-10T23:18:16;100674.75;;;9.50;100.00
47240;BME280;32978;53.586;10.052;2023-04-10T23:23:16;100658.88;;;9.29;100.00
47240;BME280;32978;53.586;10.052;2023-04-10T23:28:13;100645.97;;;9.21;100.00
47240;BME280;32978;53.586;10.052;2023-04-10T23:33:10;100642.44;;;9.20;100.00
47240;BME280;32978;53.586;10.052;2023-04-10T23:38:06;100642.75;;;9.19;100.00
47240;BME280;32978;53.586;10.052;2023-04-10T23:43:03;100626.00;;;9.12;100.00
47240;BME280;32978;53.586;10.052;2023-04-10T23:48:00;100621.19;;;9.09;100.00
47240;BME280;32978;53.586;10.052;2023-04-10T23:52:57;100606.91;;;9.12;100.00
47240;BME280;32978;53.586;10.052;2023-04-10T23:57:55;100601.59;;;9.06;100.00
